createdAt,value
2019-02-04T00:00:07.409Z,76.7
2019-02-04T00:01:07.384Z,76.14
2019-02-04T00:02:07.365Z,76.32
2019-02-04T00:03:07.100Z,76.14
2019-02-04T00:04:07.330Z,75.38
2019-02-04T00:05:07.306Z,75.57
2019-02-04T00:06:07.290Z,75.47
2019-02-04T00:07:09.138Z,75.28
2019-02-04T00:08:07.250Z,75.38
2019-02-04T00:09:07.224Z,75.19
2019-02-04T00:10:07.206Z,75
2019-02-04T00:11:07.185Z,74.43
2019-02-04T00:12:07.167Z,74.53
2019-02-04T00:13:07.151Z,73.96
2019-02-04T00:14:07.127Z,73.3
2019-02-04T00:15:07.369Z,73.02
2019-02-04T00:16:07.087Z,73.21
2019-02-04T00:17:07.062Z,73.3
2019-02-04T00:18:07.048Z,72.83
2019-02-04T00:19:06.780Z,73.3
2019-02-04T00:20:07.006Z,73.11
2019-02-04T00:21:06.741Z,73.11
2019-02-04T00:22:06.971Z,73.49
2019-02-04T00:23:06.957Z,73.02
2019-02-04T00:24:07.181Z,72.83
2019-02-04T00:25:06.906Z,72.45
2019-02-04T00:26:06.884Z,72.45
2019-02-04T00:27:06.869Z,72.36
2019-02-04T00:28:06.840Z,71.69
2019-02-04T00:29:06.827Z,71.98
2019-02-04T00:30:06.557Z,72.07
2019-02-04T00:31:07.691Z,71.79
2019-02-04T00:32:06.766Z,71.5
2019-02-04T00:33:06.494Z,71.79
2019-02-04T00:34:06.474Z,71.41
2019-02-04T00:35:06.705Z,71.31
2019-02-04T00:36:06.682Z,71.31
2019-02-04T00:37:06.668Z,71.69
2019-02-04T00:38:06.810Z,71.79
2019-02-04T00:39:06.626Z,72.17
2019-02-04T00:40:06.369Z,72.26
2019-02-04T00:41:06.588Z,73.02
2019-02-04T00:42:06.564Z,72.92
2019-02-04T00:43:06.546Z,73.02
2019-02-04T00:44:06.525Z,72.45
2019-02-04T00:45:06.505Z,72.64
2019-02-04T00:46:12.749Z,72.55
2019-02-04T00:47:06.464Z,71.79
2019-02-04T00:48:06.437Z,72.17
2019-02-04T00:49:06.423Z,72.26
2019-02-04T00:50:06.400Z,72.64
2019-02-04T00:51:06.380Z,72.36
2019-02-04T00:52:06.360Z,71.79
2019-02-04T00:53:06.338Z,71.69
2019-02-04T00:54:06.651Z,71.88
2019-02-04T00:55:06.311Z,71.88
2019-02-04T00:56:06.281Z,71.41
2019-02-04T00:57:06.258Z,71.5
2019-02-04T00:58:06.239Z,71.88
2019-02-04T00:59:06.221Z,72.07
2019-02-04T01:00:06.199Z,72.07
2019-02-04T01:01:05.930Z,72.07
2019-02-04T01:02:06.213Z,71.88
2019-02-04T01:03:06.138Z,71.88
2019-02-04T01:04:06.118Z,71.5
2019-02-04T01:05:06.096Z,71.31
2019-02-04T01:06:06.084Z,70.84
2019-02-04T01:07:06.059Z,70.56
2019-02-04T01:08:06.043Z,70.75
2019-02-04T01:09:06.021Z,70.18
2019-02-04T01:10:06.023Z,70.09
2019-02-04T01:11:05.986Z,69.81
2019-02-04T01:12:05.962Z,69.81
2019-02-04T01:13:05.692Z,69.81
2019-02-04T01:14:05.915Z,69.62
2019-02-04T01:15:05.900Z,70.37
2019-02-04T01:16:05.888Z,70.56
2019-02-04T01:17:06.288Z,71.22
2019-02-04T01:18:05.841Z,71.03
2019-02-04T01:19:05.832Z,71.69
2019-02-04T01:20:05.796Z,71.6
2019-02-04T01:21:05.532Z,71.88
2019-02-04T01:22:05.766Z,72.07
2019-02-04T01:23:05.743Z,72.07
2019-02-04T01:24:05.719Z,72.64
2019-02-04T01:25:05.696Z,72.07
2019-02-04T01:26:05.681Z,72.55
2019-02-04T01:27:05.662Z,72.36
2019-02-04T01:28:05.637Z,72.45
2019-02-04T01:29:05.622Z,72.45
2019-02-04T01:30:05.605Z,72.07
2019-02-04T01:31:05.576Z,71.98
2019-02-04T01:32:05.562Z,71.98
2019-02-04T01:33:05.544Z,72.45
2019-02-04T01:34:05.520Z,71.98
2019-02-04T01:35:05.510Z,72.07
2019-02-04T01:36:05.482Z,71.98
2019-02-04T01:37:05.214Z,72.55
2019-02-04T01:38:05.441Z,72.17
2019-02-04T01:39:05.418Z,72.45
2019-02-04T01:40:05.399Z,72.45
2019-02-04T01:41:05.473Z,72.55
2019-02-04T01:42:05.422Z,72.83
2019-02-04T01:43:05.338Z,72.55
2019-02-04T01:44:05.322Z,72.64
2019-02-04T01:45:05.301Z,72.07
2019-02-04T01:46:05.286Z,72.45
2019-02-04T01:47:14.290Z,71.79
2019-02-04T01:48:05.237Z,71.5
2019-02-04T01:49:05.228Z,70.94
2019-02-04T01:50:05.198Z,70.84
2019-02-04T01:51:05.177Z,70.84
2019-02-04T01:52:05.162Z,70.56
2019-02-04T01:53:05.151Z,70.37
2019-02-04T01:54:05.120Z,70.28
2019-02-04T01:55:05.098Z,70.18
2019-02-04T01:56:05.080Z,70.09
2019-02-04T01:57:05.355Z,69.81
2019-02-04T01:58:05.041Z,69.43
2019-02-04T01:59:05.021Z,69.81
2019-02-04T02:00:05.012Z,69.9
2019-02-04T02:01:04.980Z,70.28
2019-02-04T02:02:04.964Z,70.65
2019-02-04T02:03:04.948Z,70.09
2019-02-04T02:04:04.927Z,70
2019-02-04T02:05:05.238Z,69.71
2019-02-04T02:06:04.882Z,69.33
2019-02-04T02:07:04.612Z,68.86
2019-02-04T02:08:04.598Z,68.95
2019-02-04T02:09:04.824Z,68.48
2019-02-04T02:10:04.860Z,68.01
2019-02-04T02:11:04.784Z,68.1
2019-02-04T02:12:04.761Z,68.29
2019-02-04T02:13:05.105Z,68.67
2019-02-04T02:14:04.722Z,68.95
2019-02-04T02:15:04.703Z,69.33
2019-02-04T02:16:04.676Z,69.24
2019-02-04T02:17:04.664Z,69.43
2019-02-04T02:18:04.643Z,69.71
2019-02-04T02:19:04.628Z,70.37
2019-02-04T02:20:04.608Z,70.37
2019-02-04T02:21:04.907Z,70.75
2019-02-04T02:22:04.564Z,71.22
2019-02-04T02:23:04.300Z,71.03
2019-02-04T02:24:04.523Z,71.22
2019-02-04T02:25:04.504Z,71.12
2019-02-04T02:26:04.486Z,70.84
2019-02-04T02:27:04.215Z,70.94
2019-02-04T02:28:04.450Z,71.31
2019-02-04T02:29:04.683Z,70.94
2019-02-04T02:30:04.425Z,71.79
2019-02-04T02:31:04.392Z,71.88
2019-02-04T02:32:04.382Z,71.88
2019-02-04T02:33:04.348Z,72.55
2019-02-04T02:34:04.335Z,73.02
2019-02-04T02:35:04.310Z,73.21
2019-02-04T02:36:04.035Z,73.11
2019-02-04T02:37:04.519Z,73.39
2019-02-04T02:38:04.254Z,74.15
2019-02-04T02:39:04.227Z,74.53
2019-02-04T02:40:04.359Z,74.71
2019-02-04T02:41:04.183Z,74.53
2019-02-04T02:42:04.190Z,75.28
2019-02-04T02:43:04.146Z,75.66
2019-02-04T02:44:04.131Z,76.14
2019-02-04T02:45:04.126Z,76.51
2019-02-04T02:46:04.089Z,76.61
2019-02-04T02:47:04.064Z,77.26
2019-02-04T02:48:04.065Z,77.26
2019-02-04T02:49:04.025Z,77.36
2019-02-04T02:50:04.007Z,77.08
2019-02-04T02:51:03.734Z,77.93
2019-02-04T02:52:04.142Z,77.55
2019-02-04T02:53:03.948Z,77.83
2019-02-04T02:54:03.924Z,78.4
2019-02-04T02:55:03.917Z,78.31
2019-02-04T02:56:03.896Z,77.83
2019-02-04T02:57:03.864Z,77.55
2019-02-04T02:58:03.847Z,77.36
2019-02-04T02:59:03.855Z,76.7
2019-02-04T03:00:04.231Z,76.7
2019-02-04T03:01:03.787Z,76.23
2019-02-04T03:02:03.764Z,75.95
2019-02-04T03:03:03.744Z,75.38
2019-02-04T03:04:03.735Z,75.43
2019-02-04T03:05:03.712Z,74.62
2019-02-04T03:06:03.685Z,74.62
2019-02-04T03:07:03.669Z,74.11
2019-02-04T03:08:04.026Z,74.24
2019-02-04T03:09:03.379Z,73.39
2019-02-04T03:10:03.604Z,73.86
2019-02-04T03:11:03.589Z,73.77
2019-02-04T03:12:03.565Z,73.49
2019-02-04T03:13:03.543Z,73.49
2019-02-04T03:14:03.524Z,73.45
2019-02-04T03:15:03.511Z,73.77
2019-02-04T03:16:03.762Z,73.3
2019-02-04T03:17:03.466Z,73.64
2019-02-04T03:18:03.445Z,73.07
2019-02-04T03:19:03.427Z,73.36
2019-02-04T03:20:03.417Z,72.69
2019-02-04T03:21:03.387Z,72.41
2019-02-04T03:22:03.364Z,72.07
2019-02-04T03:23:03.405Z,71.79
2019-02-04T03:24:03.697Z,71.12
2019-02-04T03:25:03.311Z,71.09
2019-02-04T03:26:03.288Z,70.65
2019-02-04T03:27:03.271Z,70.09
2019-02-04T03:28:03.249Z,70.15
2019-02-04T03:29:03.223Z,69.9
2019-02-04T03:30:03.047Z,70.34
2019-02-04T03:31:03.280Z,69.9
2019-02-04T03:32:03.169Z,69.77
2019-02-04T03:33:03.182Z,69.62
2019-02-04T03:34:03.124Z,69.43
2019-02-04T03:35:03.227Z,69.24
2019-02-04T03:36:03.085Z,69.14
2019-02-04T03:37:03.069Z,69.9
2019-02-04T03:38:03.045Z,69.81
2019-02-04T03:39:03.174Z,70.15
2019-02-04T03:40:03.009Z,70.28
2019-02-04T03:41:02.984Z,70.18
2019-02-04T03:42:03.080Z,71.03
2019-02-04T03:43:02.951Z,70.62
2019-02-04T03:44:02.926Z,70.65
2019-02-04T03:45:03.001Z,70.84
2019-02-04T03:46:02.887Z,70.84
2019-02-04T03:47:02.888Z,70.84
2019-02-04T03:48:11.362Z,70.65
2019-02-04T03:49:02.822Z,70.47
2019-02-04T03:50:02.936Z,70.47
2019-02-04T03:51:02.789Z,70.18
2019-02-04T03:52:02.765Z,69.96
2019-02-04T03:53:02.738Z,70.18
2019-02-04T03:54:02.727Z,70.28
2019-02-04T03:55:02.874Z,70.28
2019-02-04T03:56:02.683Z,69.9
2019-02-04T03:57:02.666Z,70
2019-02-04T03:58:02.640Z,70.34
2019-02-04T03:59:02.372Z,70.15
2019-02-04T04:00:02.609Z,70.84
2019-02-04T04:01:02.582Z,71.12
2019-02-04T04:02:02.564Z,70.94
2019-02-04T04:03:02.813Z,71.22
2019-02-04T04:04:02.521Z,70.84
2019-02-04T04:05:02.574Z,70.47
2019-02-04T04:06:02.485Z,70.47
2019-02-04T04:07:02.464Z,70.28
2019-02-04T04:08:02.470Z,70.37
2019-02-04T04:09:02.426Z,70.09
2019-02-04T04:10:02.404Z,70.09
2019-02-04T04:11:02.569Z,69.9
2019-02-04T04:12:02.367Z,70
2019-02-04T04:13:02.356Z,70.18
2019-02-04T04:14:02.339Z,70.09
2019-02-04T04:15:02.302Z,69.71
2019-02-04T04:16:02.281Z,69.62
2019-02-04T04:17:02.015Z,69.71
2019-02-04T04:18:02.239Z,69.71
2019-02-04T04:19:02.417Z,69.52
2019-02-04T04:20:02.215Z,69.9
2019-02-04T04:21:02.174Z,69.71
2019-02-04T04:22:02.156Z,69.43
2019-02-04T04:23:02.135Z,69.52
2019-02-04T04:24:02.125Z,69.33
2019-02-04T04:25:02.097Z,69.33
2019-02-04T04:26:02.081Z,69.14
2019-02-04T04:27:02.352Z,69.24
2019-02-04T04:28:02.040Z,69.33
2019-02-04T04:29:01.769Z,69.14
2019-02-04T04:30:01.997Z,69.43
2019-02-04T04:31:01.732Z,69.62
2019-02-04T04:32:01.963Z,69.71
2019-02-04T04:33:01.938Z,69.71
2019-02-04T04:34:01.919Z,69.71
2019-02-04T04:35:02.101Z,70.18
2019-02-04T04:36:01.876Z,70
2019-02-04T04:37:01.858Z,70.18
2019-02-04T04:38:01.915Z,70.18
2019-02-04T04:39:01.816Z,70.9
2019-02-04T04:40:01.548Z,70.65
2019-02-04T04:41:01.777Z,71.12
2019-02-04T04:42:01.760Z,71
2019-02-04T04:43:01.486Z,70.94
2019-02-04T04:44:01.715Z,70.94
2019-02-04T04:45:01.709Z,70.84
2019-02-04T04:46:01.676Z,70.43
2019-02-04T04:47:01.657Z,70.72
2019-02-04T04:48:01.639Z,70.62
2019-02-04T04:49:01.615Z,71
2019-02-04T04:50:01.345Z,70.62
2019-02-04T04:51:01.573Z,71.19
2019-02-04T04:52:01.552Z,71
2019-02-04T04:53:01.544Z,71
2019-02-04T04:54:01.519Z,71.09
2019-02-04T04:55:01.630Z,71.19
2019-02-04T04:56:01.475Z,71.19
2019-02-04T04:57:01.456Z,70.43
2019-02-04T04:58:01.602Z,69.86
2019-02-04T04:59:01.416Z,69.67
2019-02-04T05:00:01.394Z,69.01
2019-02-04T05:01:01.380Z,69.39
2019-02-04T05:02:01.362Z,69.2
2019-02-04T05:03:01.333Z,69.11
2019-02-04T05:04:01.313Z,69.11
2019-02-04T05:05:01.303Z,69.39
2019-02-04T05:06:01.583Z,68.63
2019-02-04T05:07:03.129Z,68.35
2019-02-04T05:08:01.249Z,67.41
2019-02-04T05:09:01.215Z,67.41
2019-02-04T05:10:01.191Z,67.32
2019-02-04T05:11:01.177Z,67.03
2019-02-04T05:12:01.151Z,67.03
2019-02-04T05:13:01.137Z,66.84
2019-02-04T05:14:01.338Z,67.22
2019-02-04T05:15:01.091Z,67.13
2019-02-04T05:16:01.071Z,66.84
2019-02-04T05:17:01.053Z,67.32
2019-02-04T05:18:01.032Z,67.6
2019-02-04T05:19:01.016Z,67.6
2019-02-04T05:20:00.997Z,67.97
2019-02-04T05:21:00.975Z,68.07
2019-02-04T05:22:01.159Z,68.92
2019-02-04T05:23:00.931Z,69.01
2019-02-04T05:24:00.668Z,69.2
2019-02-04T05:25:00.892Z,69.58
2019-02-04T05:26:00.869Z,69.58
2019-02-04T05:27:00.855Z,70.34
2019-02-04T05:28:00.831Z,70.53
2019-02-04T05:29:00.813Z,71
2019-02-04T05:30:01.126Z,71.84
2019-02-04T05:31:00.768Z,71.94
2019-02-04T05:32:00.755Z,72.51
2019-02-04T05:33:00.731Z,72.98
2019-02-04T05:34:00.710Z,73.45
2019-02-04T05:35:00.689Z,74.02
2019-02-04T05:36:00.676Z,74.21
2019-02-04T05:37:00.650Z,75.34
2019-02-04T05:38:00.896Z,75.71
2019-02-04T05:39:00.713Z,76.66
2019-02-04T05:40:00.591Z,77.13
2019-02-04T05:41:00.567Z,77.7
2019-02-04T05:42:00.550Z,77.51
2019-02-04T05:43:00.536Z,77.89
2019-02-04T05:44:00.519Z,77.13
2019-02-04T05:45:00.488Z,77.13
2019-02-04T05:46:00.467Z,76.47
2019-02-04T05:47:00.450Z,75.62
2019-02-04T05:48:00.433Z,75.05
2019-02-04T05:49:00.405Z,75.24
2019-02-04T05:50:00.387Z,74.87
2019-02-04T05:51:00.119Z,74.68
2019-02-04T05:52:00.344Z,74.02
2019-02-04T05:53:00.326Z,72.69
2019-02-04T05:54:00.309Z,71.66
2019-02-04T05:55:00.325Z,70.34
2019-02-04T05:56:00.267Z,69.39
2019-02-04T05:57:00.243Z,69.11
2019-02-04T05:58:00.225Z,68.63
2019-02-04T05:59:00.204Z,69.39
2019-02-04T06:00:00.337Z,70.15
2019-02-04T06:01:00.320Z,71.19
2019-02-04T06:01:59.894Z,72.51
2019-02-04T06:03:00.126Z,73.55
2019-02-04T06:04:00.108Z,74.45
2019-02-04T06:04:59.836Z,75.78
2019-02-04T06:06:00.059Z,78.04
2019-02-04T06:07:00.058Z,78.23
2019-02-04T06:08:00.025Z,78.13
2019-02-04T06:09:00.303Z,77.56
2019-02-04T06:09:59.726Z,77.09
2019-02-04T06:10:59.957Z,76.81
2019-02-04T06:11:59.941Z,75.78
2019-02-04T06:12:59.669Z,76.06
2019-02-04T06:13:59.995Z,75.68
2019-02-04T06:14:59.876Z,75.3
2019-02-04T06:15:59.950Z,74.83
2019-02-04T06:16:59.858Z,75.96
2019-02-04T06:17:59.813Z,76.15
2019-02-04T06:19:03.156Z,76.72
2019-02-04T06:19:59.771Z,76.62
2019-02-04T06:20:59.824Z,77.09
2019-02-04T06:21:59.733Z,77.66
2019-02-04T06:22:59.713Z,78.04
2019-02-04T06:23:59.690Z,78.51
2019-02-04T06:24:59.981Z,78.51
2019-02-04T06:25:59.654Z,78.75
2019-02-04T06:26:59.622Z,78.47
2019-02-04T06:27:59.603Z,78.38
2019-02-04T06:28:59.583Z,78.47
2019-02-04T06:29:59.569Z,79.13
2019-02-04T06:30:59.542Z,79.6
2019-02-04T06:31:59.516Z,80.17
2019-02-04T06:32:59.775Z,80.36
2019-02-04T06:33:59.480Z,80.45
2019-02-04T06:34:59.488Z,80.17
2019-02-04T06:35:59.439Z,80.26
2019-02-04T06:36:59.416Z,81.02
2019-02-04T06:37:59.398Z,81.3
2019-02-04T06:38:59.394Z,81.68
2019-02-04T06:39:59.354Z,81.68
2019-02-04T06:40:59.341Z,81.11
2019-02-04T06:41:59.314Z,81.3
2019-02-04T06:42:59.292Z,80.92
2019-02-04T06:43:59.273Z,80.26
2019-02-04T06:44:59.248Z,79.32
2019-02-04T06:45:59.232Z,79.79
2019-02-04T06:46:59.209Z,79.5
2019-02-04T06:47:59.427Z,80.45
2019-02-04T06:48:59.166Z,80.26
2019-02-04T06:49:59.146Z,79.69
2019-02-04T06:50:59.121Z,79.69
2019-02-04T06:51:59.102Z,79.69
2019-02-04T06:52:59.079Z,79.88
2019-02-04T06:53:59.062Z,79.6
2019-02-04T06:54:59.037Z,79.88
2019-02-04T06:55:59.258Z,80.45
2019-02-04T06:56:58.996Z,80.64
2019-02-04T06:57:58.980Z,80.64
2019-02-04T06:58:58.951Z,81.3
2019-02-04T06:59:58.932Z,81.77
2019-02-04T07:00:58.911Z,81.87
2019-02-04T07:02:00.277Z,82.24
2019-02-04T07:02:58.875Z,82.81
2019-02-04T07:03:59.225Z,83.65
2019-02-04T07:04:58.825Z,83.75
2019-02-04T07:05:58.805Z,83.94
2019-02-04T07:06:58.802Z,84.03
2019-02-04T07:07:58.760Z,84.13
2019-02-04T07:08:58.753Z,83.37
2019-02-04T07:09:58.724Z,83.56
2019-02-04T07:10:58.696Z,83.56
2019-02-04T07:11:58.678Z,82.81
2019-02-04T07:12:58.667Z,81.96
2019-02-04T07:13:58.634Z,81.58
2019-02-04T07:14:58.623Z,81.3
2019-02-04T07:15:58.587Z,81.3
2019-02-04T07:16:58.564Z,81.11
2019-02-04T07:18:04.182Z,81.11
2019-02-04T07:18:58.837Z,80.17
2019-02-04T07:19:58.515Z,79.13
2019-02-04T07:20:58.479Z,78.47
2019-02-04T07:21:58.461Z,78.75
2019-02-04T07:22:58.440Z,78.56
2019-02-04T07:23:58.174Z,78.75
2019-02-04T07:24:58.390Z,79.69
2019-02-04T07:25:58.372Z,80.26
2019-02-04T07:26:58.564Z,81.4
2019-02-04T07:27:58.083Z,82.62
2019-02-04T07:28:58.095Z,83.18
2019-02-04T07:29:58.284Z,84.13
2019-02-04T07:30:58.374Z,84.6
2019-02-04T07:31:58.244Z,85.83
2019-02-04T07:32:58.275Z,86.4
2019-02-04T07:33:58.198Z,87.43
2019-02-04T07:34:58.178Z,88.84
2019-02-04T07:35:58.156Z,88.94
2019-02-04T07:36:58.135Z,89.51
2019-02-04T07:37:58.120Z,89.79
2019-02-04T07:38:58.097Z,90.36
2019-02-04T07:39:58.076Z,90.64
2019-02-04T07:40:58.052Z,91.3
2019-02-04T07:41:58.255Z,91.49
2019-02-04T07:42:58.009Z,91.58
2019-02-04T07:43:57.987Z,91.39
2019-02-04T07:44:57.714Z,91.58
2019-02-04T07:45:57.699Z,92.24
2019-02-04T07:46:57.677Z,91.49
2019-02-04T07:47:58.021Z,91.3
2019-02-04T07:48:57.890Z,91.02
2019-02-04T07:49:58.009Z,90.83
2019-02-04T07:50:57.839Z,90.73
2019-02-04T07:51:57.817Z,90.92
2019-02-04T07:52:57.793Z,91.39
2019-02-04T07:53:57.782Z,91.96
2019-02-04T07:54:57.506Z,92.33
2019-02-04T07:55:57.743Z,92.61
2019-02-04T07:56:57.706Z,93.37
2019-02-04T07:58:00.395Z,93.84
2019-02-04T07:58:57.418Z,93.94
2019-02-04T07:59:57.642Z,94.03
2019-02-04T08:00:57.642Z,94.03
2019-02-04T08:01:57.600Z,94.03
2019-02-04T08:02:57.585Z,93.37
2019-02-04T08:03:57.810Z,92.99
2019-02-04T08:04:57.538Z,92.24
2019-02-04T08:05:57.549Z,90.64
2019-02-04T08:06:57.493Z,90.17
2019-02-04T08:07:57.487Z,89.6
2019-02-04T08:08:57.455Z,88.94
2019-02-04T08:09:57.440Z,88.28
2019-02-04T08:10:57.410Z,88.47
2019-02-04T08:11:57.387Z,87.9
2019-02-04T08:13:04.077Z,88.28
2019-02-04T08:13:57.104Z,88.37
2019-02-04T08:14:57.324Z,88.75
2019-02-04T08:15:57.311Z,89.22
2019-02-04T08:16:57.301Z,89.79
2019-02-04T08:17:57.268Z,90.45
2019-02-04T08:18:56.989Z,90.73
2019-02-04T08:19:57.223Z,89.69
2019-02-04T08:20:57.450Z,88.7
2019-02-04T08:21:57.180Z,87.66
2019-02-04T08:22:57.174Z,86.34
2019-02-04T08:23:57.138Z,85.21
2019-02-04T08:24:57.120Z,84.92
2019-02-04T08:25:57.093Z,83.98
2019-02-04T08:26:57.082Z,82.85
2019-02-04T08:27:57.053Z,81.81
2019-02-04T08:28:57.333Z,81.24
2019-02-04T08:29:57.008Z,81.15
2019-02-04T08:30:56.748Z,81.24
2019-02-04T08:31:56.971Z,81.62
2019-02-04T08:32:56.952Z,82.19
2019-02-04T08:33:56.940Z,82.19
2019-02-04T08:34:56.923Z,82.38
2019-02-04T08:35:56.887Z,82.38
2019-02-04T08:36:57.263Z,82.85
2019-02-04T08:37:56.840Z,82.95
2019-02-04T08:38:56.829Z,83.42
2019-02-04T08:39:56.559Z,84.17
2019-02-04T08:40:56.781Z,84.92
2019-02-04T08:41:56.528Z,85.49
2019-02-04T08:42:56.500Z,86.15
2019-02-04T08:43:56.957Z,86.06
2019-02-04T08:44:56.700Z,86.25
2019-02-04T08:45:56.688Z,85.87
2019-02-04T08:46:56.666Z,85.96
2019-02-04T08:47:56.730Z,86.72
2019-02-04T08:48:56.632Z,86.53
2019-02-04T08:50:01.850Z,87.19
2019-02-04T08:50:56.582Z,88.32
2019-02-04T08:51:56.958Z,89.08
2019-02-04T08:52:56.549Z,89.83
2019-02-04T08:53:56.512Z,91.06
2019-02-04T08:54:56.489Z,91.53
2019-02-04T08:55:56.475Z,92.76
2019-02-04T08:56:56.451Z,93.13
2019-02-04T08:57:56.440Z,92.85
2019-02-04T08:58:56.611Z,92.66
2019-02-04T08:59:56.143Z,92.43
2019-02-04T09:00:56.367Z,92.47
2019-02-04T09:01:56.349Z,92.52
2019-02-04T09:02:56.329Z,92.9
2019-02-04T09:03:56.316Z,92.61
2019-02-04T09:04:56.343Z,92.8
2019-02-04T09:05:56.276Z,93.66
2019-02-04T09:06:56.599Z,94.51
2019-02-04T09:07:56.232Z,94.89
2019-02-04T09:08:56.199Z,96.01
2019-02-04T09:09:56.189Z,96.39
2019-02-04T09:10:55.920Z,96.68
2019-02-04T09:11:56.187Z,97.34
2019-02-04T09:12:56.126Z,97.81
2019-02-04T09:13:56.225Z,98.66
2019-02-04T09:14:56.085Z,99.22
2019-02-04T09:15:56.061Z,99.51
2019-02-04T09:16:56.042Z,99.99
2019-02-04T09:17:56.028Z,99.99
2019-02-04T09:18:55.996Z,99.99
2019-02-04T09:19:55.990Z,99.99
2019-02-04T09:20:55.961Z,99.99
2019-02-04T09:21:55.949Z,99.99
2019-02-04T09:22:55.923Z,99.99
2019-02-04T09:23:55.902Z,99.99
2019-02-04T09:24:55.878Z,99.99
2019-02-04T09:25:55.862Z,99.99
2019-02-04T09:26:55.590Z,99.99
2019-02-04T09:27:55.824Z,99.99
2019-02-04T09:28:55.796Z,99.99
2019-02-04T09:29:55.782Z,99.99
2019-02-04T09:30:55.762Z,99.99
2019-02-04T09:31:55.741Z,99.99
2019-02-04T09:32:55.489Z,99.99
2019-02-04T09:33:55.701Z,99.99
2019-02-04T09:34:55.690Z,99.99
2019-02-04T09:35:55.660Z,99.99
2019-02-04T09:36:55.830Z,99.99
2019-02-04T09:37:55.629Z,99.99
2019-02-04T09:38:55.603Z,99.99
2019-02-04T09:39:55.588Z,99.99
2019-02-04T09:40:55.564Z,99.99
2019-02-04T09:41:55.288Z,99.99
2019-02-04T09:42:55.533Z,99.99
2019-02-04T09:43:55.501Z,99.99
2019-02-04T09:44:55.822Z,99.99
2019-02-04T09:45:55.473Z,99.99
2019-02-04T09:46:55.443Z,99.99
2019-02-04T09:47:55.425Z,99.99
2019-02-04T09:48:55.420Z,99.99
2019-02-04T09:49:55.385Z,99.99
2019-02-04T09:50:55.362Z,99.99
2019-02-04T09:51:55.354Z,99.99
2019-02-04T09:52:55.329Z,99.99
2019-02-04T09:53:55.327Z,99.99
2019-02-04T09:54:55.306Z,99.99
2019-02-04T09:55:57.039Z,99.99
2019-02-04T09:56:55.241Z,99.99
2019-02-04T09:57:55.238Z,99.99
2019-02-04T09:58:55.203Z,99.99
2019-02-04T09:59:55.761Z,99.99
2019-02-04T10:00:55.169Z,99.99
2019-02-04T10:01:55.147Z,99.99
2019-02-04T10:02:55.128Z,99.99
2019-02-04T10:03:55.103Z,99.99
2019-02-04T10:04:55.084Z,99.99
2019-02-04T10:05:55.068Z,99.99
2019-02-04T10:06:57.869Z,99.99
2019-02-04T10:07:55.362Z,99.99
2019-02-04T10:08:55.006Z,99.99
2019-02-04T10:09:54.989Z,99.99
2019-02-04T10:10:54.973Z,99.99
2019-02-04T10:11:54.949Z,99.99
2019-02-04T10:12:55.141Z,99.99
2019-02-04T10:13:54.918Z,99.99
2019-02-04T10:14:54.921Z,99.99
2019-02-04T10:15:55.234Z,99.99
2019-02-04T10:16:54.894Z,99.99
2019-02-04T10:17:55.034Z,99.99
2019-02-04T10:18:54.860Z,99.99
2019-02-04T10:19:54.844Z,99.99
2019-02-04T10:20:54.826Z,99.99
2019-02-04T10:21:56.501Z,99.99
2019-02-04T10:22:54.769Z,99.99
2019-02-04T10:23:55.051Z,99.99
2019-02-04T10:24:54.730Z,99.99
2019-02-04T10:25:54.834Z,99.99
2019-02-04T10:26:54.454Z,99.99
2019-02-04T10:27:54.687Z,99.99
2019-02-04T10:28:54.661Z,99.99
2019-02-04T10:29:54.626Z,99.99
2019-02-04T10:30:54.644Z,99.99
2019-02-04T10:31:54.765Z,99.99
2019-02-04T10:32:54.583Z,99.99
2019-02-04T10:33:54.621Z,99.99
2019-02-04T10:34:54.571Z,99.99
2019-02-04T10:35:54.512Z,99.99
2019-02-04T10:36:54.499Z,99.99
2019-02-04T10:37:54.493Z,99.99
2019-02-04T10:38:54.449Z,99.99
2019-02-04T10:39:54.705Z,99.99
2019-02-04T10:40:54.452Z,99.99
2019-02-04T10:41:54.432Z,99.99
2019-02-04T10:42:54.385Z,99.99
2019-02-04T10:43:54.355Z,99.99
2019-02-04T10:44:54.547Z,99.99
2019-02-04T10:45:54.323Z,99.99
2019-02-04T10:46:54.442Z,99.99
2019-02-04T10:47:54.306Z,99.99
2019-02-04T10:48:54.285Z,99.99
2019-02-04T10:49:54.279Z,99.99
2019-02-04T10:50:54.017Z,99.99
2019-02-04T10:51:54.304Z,99.99
2019-02-04T10:52:54.178Z,99.99
2019-02-04T10:53:54.228Z,99.99
2019-02-04T10:54:54.351Z,99.99
2019-02-04T10:55:54.208Z,99.99
2019-02-04T10:56:53.868Z,99.99
2019-02-04T10:57:54.117Z,99.99
2019-02-04T10:58:54.110Z,99.99
2019-02-04T10:59:53.899Z,99.99
2019-02-04T11:00:53.862Z,99.99
2019-02-04T11:01:54.024Z,99.99
2019-02-04T11:02:54.291Z,99.99
2019-02-04T11:03:54.014Z,99.99
2019-02-04T11:04:53.941Z,99.99
2019-02-04T11:05:53.998Z,99.99
2019-02-04T11:06:53.984Z,99.99
2019-02-04T11:07:53.949Z,99.99
2019-02-04T11:08:53.664Z,99.99
2019-02-04T11:09:53.876Z,99.99
2019-02-04T11:10:53.909Z,99.99
2019-02-04T11:11:53.872Z,99.99
2019-02-04T11:12:53.995Z,99.99
2019-02-04T11:13:53.861Z,99.99
2019-02-04T11:14:53.849Z,99.99
2019-02-04T11:15:53.792Z,99.99
2019-02-04T11:16:53.726Z,99.99
2019-02-04T11:17:53.766Z,99.99
2019-02-04T11:18:53.728Z,99.99
2019-02-04T11:19:53.687Z,99.99
2019-02-04T11:21:00.756Z,99.99
2019-02-04T11:21:53.681Z,99.99
2019-02-04T11:22:53.652Z,99.99
2019-02-04T11:23:53.613Z,99.99
2019-02-04T11:24:53.610Z,99.99
2019-02-04T11:25:53.829Z,99.99
2019-02-04T11:26:53.664Z,99.99
2019-02-04T11:27:53.764Z,99.99
2019-02-04T11:28:53.567Z,99.99
2019-02-04T11:29:53.550Z,99.99
2019-02-04T11:30:53.559Z,99.99
2019-02-04T11:31:53.506Z,99.99
2019-02-04T11:32:53.454Z,99.99
2019-02-04T11:33:53.647Z,99.99
2019-02-04T11:34:53.438Z,99.99
2019-02-04T11:35:53.483Z,99.99
2019-02-04T11:36:53.414Z,99.99
2019-02-04T11:37:53.411Z,99.99
2019-02-04T11:38:53.392Z,99.99
2019-02-04T11:39:53.358Z,99.99
2019-02-04T11:40:53.524Z,99.99
2019-02-04T11:41:53.589Z,99.99
2019-02-04T11:42:53.329Z,99.99
2019-02-04T11:43:53.311Z,99.99
2019-02-04T11:44:53.275Z,99.99
2019-02-04T11:45:55.033Z,99.99
2019-02-04T11:46:53.186Z,99.99
2019-02-04T11:47:53.228Z,99.99
2019-02-04T11:48:53.152Z,99.99
2019-02-04T11:49:53.406Z,99.99
2019-02-04T11:50:53.114Z,99.99
2019-02-04T11:51:53.106Z,99.99
2019-02-04T11:52:53.098Z,99.99
2019-02-04T11:53:53.062Z,99.99
2019-02-04T11:54:53.047Z,99.99
2019-02-04T11:55:53.032Z,99.99
2019-02-04T11:56:53.011Z,99.99
2019-02-04T11:57:53.048Z,99.99
2019-02-04T11:58:52.973Z,99.99
2019-02-04T11:59:52.952Z,99.99
2019-02-04T12:00:52.937Z,99.99
2019-02-04T12:01:52.931Z,99.99
2019-02-04T12:02:52.908Z,99.99
2019-02-04T12:03:52.886Z,99.99
2019-02-04T12:04:53.037Z,99.99
2019-02-04T12:05:52.858Z,99.99
2019-02-04T12:06:52.830Z,99.99
2019-02-04T12:07:52.822Z,99.99
2019-02-04T12:08:52.803Z,99.99
2019-02-04T12:09:52.781Z,99.99
2019-02-04T12:10:52.767Z,99.99
2019-02-04T12:11:55.603Z,99.99
2019-02-04T12:12:52.985Z,99.99
2019-02-04T12:13:52.710Z,99.99
2019-02-04T12:14:52.695Z,99.99
2019-02-04T12:15:52.428Z,99.99
2019-02-04T12:16:52.659Z,99.99
2019-02-04T12:17:52.750Z,99.99
2019-02-04T12:18:52.626Z,99.99
2019-02-04T12:19:52.605Z,99.99
2019-02-04T12:20:52.919Z,99.99
2019-02-04T12:21:52.580Z,99.99
2019-02-04T12:22:52.605Z,99.99
2019-02-04T12:23:52.541Z,99.99
2019-02-04T12:24:52.517Z,99.99
2019-02-04T12:25:52.505Z,99.99
2019-02-04T12:26:52.487Z,99.99
2019-02-04T12:27:52.466Z,99.99
2019-02-04T12:28:52.449Z,99.99
2019-02-04T12:29:52.431Z,99.99
2019-02-04T12:30:52.417Z,99.99
2019-02-04T12:31:52.399Z,99.99
2019-02-04T12:32:52.377Z,99.99
2019-02-04T12:33:52.358Z,99.99
2019-02-04T12:34:52.359Z,99.99
2019-02-04T12:35:52.501Z,99.99
2019-02-04T12:36:52.475Z,99.99
2019-02-04T12:37:52.338Z,99.99
2019-02-04T12:38:52.272Z,99.99
2019-02-04T12:39:52.005Z,99.99
2019-02-04T12:40:52.236Z,99.99
2019-02-04T12:41:53.205Z,99.99
2019-02-04T12:42:52.254Z,99.99
2019-02-04T12:43:52.209Z,99.99
2019-02-04T12:44:52.166Z,99.99
2019-02-04T12:45:52.146Z,99.99
2019-02-04T12:46:52.131Z,99.99
2019-02-04T12:47:52.108Z,99.99
2019-02-04T12:48:52.100Z,99.99
2019-02-04T12:49:52.080Z,99.99
2019-02-04T12:50:51.866Z,99.99
2019-02-04T12:51:52.332Z,99.99
2019-02-04T12:52:52.024Z,99.99
2019-02-04T12:53:51.870Z,99.99
2019-02-04T12:54:51.988Z,99.99